sensor_id;sensor_type;location;lat;lon;timestamp;P1;durP1;ratioP1;P2;durP2;ratioP2
45842;SDS011;31563;51.744;8.252;2022-12-24T00:01:32;5.35;;;2.25;;
45842;SDS011;31563;51.744;8.252;2022-12-24T00:04:00;4.15;;;1.92;;
45842;SDS011;31563;51.744;8.252;2022-12-24T00:06:28;4.80;;;2.35;;
45842;SDS011;31563;51.744;8.252;2022-12-24T00:08:57;6.35;;;2.25;;
45842;SDS011;31563;51.744;8.252;2022-12-24T00:11:25;4.22;;;1.92;;
45842;SDS011;31563;51.744;8.252;2022-12-24T00:13:54;5.10;;;2.45;;
45842;SDS011;31563;51.744;8.252;2022-12-24T00:16:23;6.63;;;2.08;;
45842;SDS011;31563;51.744;8.252;2022-12-24T00:18:51;6.50;;;2.28;;
45842;SDS011;31563;51.744;8.252;2022-12-24T00:21:20;4.88;;;2.50;;
45842;SDS011;31563;51.744;8.252;2022-12-24T00:23:48;3.83;;;1.83;;
45842;SDS011;31563;51.744;8.252;2022-12-24T00:26:16;5.50;;;2.22;;
45842;SDS011;31563;51.744;8.252;2022-12-24T00:28:44;6.50;;;2.33;;
45842;SDS011;31563;51.744;8.252;2022-12-24T00:31:14;5.40;;;2.08;;
45842;SDS011;31563;51.744;8.252;2022-12-24T00:33:44;4.40;;;2.00;;
45842;SDS011;31563;51.744;8.252;2022-12-24T00:36:13;3.95;;;1.83;;
45842;SDS011;31563;51.744;8.252;2022-12-24T00:38:41;5.85;;;2.05;;
45842;SDS011;31563;51.744;8.252;2022-12-24T00:41:11;4.03;;;1.77;;
45842;SDS011;31563;51.744;8.252;2022-12-24T00:43:52;3.95;;;2.28;;
45842;SDS011;31563;51.744;8.252;2022-12-24T00:46:22;4.15;;;1.90;;
45842;SDS011;31563;51.744;8.252;2022-12-24T00:48:51;5.05;;;2.15;;
45842;SDS011;31563;51.744;8.252;2022-12-24T00:51:19;4.43;;;1.88;;
45842;SDS011;31563;51.744;8.252;2022-12-24T00:53:48;4.45;;;1.92;;
45842;SDS011;31563;51.744;8.252;2022-12-24T00:56:16;5.43;;;2.60;;
45842;SDS011;31563;51.744;8.252;2022-12-24T00:58:45;5.53;;;2.42;;
45842;SDS011;31563;51.744;8.252;2022-12-24T01:01:13;6.75;;;2.60;;
45842;SDS011;31563;51.744;8.252;2022-12-24T01:03:43;5.28;;;2.45;;
45842;SDS011;31563;51.744;8.252;2022-12-24T01:06:12;5.00;;;2.03;;
45842;SDS011;31563;51.744;8.252;2022-12-24T01:08:41;6.10;;;1.92;;
45842;SDS011;31563;51.744;8.252;2022-12-24T01:11:10;5.15;;;2.15;;
45842;SDS011;31563;51.744;8.252;2022-12-24T01:13:39;6.57;;;2.08;;
45842;SDS011;31563;51.744;8.252;2022-12-24T01:16:12;4.57;;;1.90;;
45842;SDS011;31563;51.744;8.252;2022-12-24T01:18:41;5.75;;;2.30;;
45842;SDS011;31563;51.744;8.252;2022-12-24T01:21:11;4.68;;;1.92;;
45842;SDS011;31563;51.744;8.252;2022-12-24T01:23:39;3.97;;;1.90;;
45842;SDS011;31563;51.744;8.252;2022-12-24T01:26:09;3.63;;;1.98;;
45842;SDS011;31563;51.744;8.252;2022-12-24T01:28:37;4.28;;;1.60;;
45842;SDS011;31563;51.744;8.252;2022-12-24T01:31:09;5.35;;;2.28;;
45842;SDS011;31563;51.744;8.252;2022-12-24T01:33:39;4.20;;;2.28;;
45842;SDS011;31563;51.744;8.252;2022-12-24T01:36:09;3.80;;;1.55;;
45842;SDS011;31563;51.744;8.252;2022-12-24T01:38:38;5.15;;;2.00;;
45842;SDS011;31563;51.744;8.252;2022-12-24T01:41:06;5.00;;;2.13;;
45842;SDS011;31563;51.744;8.252;2022-12-24T01:43:57;5.75;;;2.10;;
45842;SDS011;31563;51.744;8.252;2022-12-24T01:46:26;5.53;;;2.55;;
45842;SDS011;31563;51.744;8.252;2022-12-24T01:48:57;4.10;;;1.75;;
45842;SDS011;31563;51.744;8.252;2022-12-24T01:51:31;5.40;;;2.03;;
45842;SDS011;31563;51.744;8.252;2022-12-24T01:54:02;5.03;;;1.90;;
45842;SDS011;31563;51.744;8.252;2022-12-24T01:56:34;5.55;;;1.80;;
45842;SDS011;31563;51.744;8.252;2022-12-24T01:59:09;4.35;;;1.95;;
45842;SDS011;31563;51.744;8.252;2022-12-24T02:01:41;4.18;;;1.65;;
45842;SDS011;31563;51.744;8.252;2022-12-24T02:04:11;6.45;;;2.33;;
45842;SDS011;31563;51.744;8.252;2022-12-24T02:06:41;3.50;;;1.88;;
45842;SDS011;31563;51.744;8.252;2022-12-24T02:09:10;6.18;;;2.42;;
45842;SDS011;31563;51.744;8.252;2022-12-24T02:11:38;6.35;;;1.75;;
45842;SDS011;31563;51.744;8.252;2022-12-24T02:14:09;3.85;;;2.05;;
45842;SDS011;31563;51.744;8.252;2022-12-24T02:16:42;6.55;;;1.95;;
45842;SDS011;31563;51.744;8.252;2022-12-24T02:19:23;4.40;;;1.98;;
45842;SDS011;31563;51.744;8.252;2022-12-24T02:22:10;4.53;;;1.95;;
45842;SDS011;31563;51.744;8.252;2022-12-24T02:27:38;5.75;;;1.95;;
45842;SDS011;31563;51.744;8.252;2022-12-24T02:30:20;5.05;;;2.08;;
45842;SDS011;31563;51.744;8.252;2022-12-24T02:35:47;4.43;;;1.60;;
45842;SDS011;31563;51.744;8.252;2022-12-24T02:38:19;4.50;;;1.63;;
45842;SDS011;31563;51.744;8.252;2022-12-24T02:40:53;4.43;;;2.13;;
45842;SDS011;31563;51.744;8.252;2022-12-24T02:43:26;5.50;;;1.85;;
45842;SDS011;31563;51.744;8.252;2022-12-24T02:46:01;4.63;;;1.60;;
45842;SDS011;31563;51.744;8.252;2022-12-24T02:48:33;6.35;;;2.28;;
45842;SDS011;31563;51.744;8.252;2022-12-24T02:51:05;4.38;;;2.03;;
45842;SDS011;31563;51.744;8.252;2022-12-24T02:53:35;3.50;;;1.55;;
45842;SDS011;31563;51.744;8.252;2022-12-24T02:56:18;5.43;;;2.10;;
45842;SDS011;31563;51.744;8.252;2022-12-24T02:59:08;5.88;;;2.05;;
45842;SDS011;31563;51.744;8.252;2022-12-24T03:02:11;4.97;;;1.85;;
45842;SDS011;31563;51.744;8.252;2022-12-24T03:04:51;4.13;;;1.63;;
45842;SDS011;31563;51.744;8.252;2022-12-24T03:07:27;4.13;;;1.98;;
45842;SDS011;31563;51.744;8.252;2022-12-24T03:10:11;5.55;;;1.95;;
45842;SDS011;31563;51.744;8.252;2022-12-24T03:12:45;6.38;;;1.80;;
45842;SDS011;31563;51.744;8.252;2022-12-24T03:15:16;6.03;;;2.08;;
45842;SDS011;31563;51.744;8.252;2022-12-24T03:17:48;4.13;;;1.95;;
45842;SDS011;31563;51.744;8.252;2022-12-24T03:20:19;4.38;;;1.88;;
45842;SDS011;31563;51.744;8.252;2022-12-24T03:22:49;6.57;;;1.98;;
45842;SDS011;31563;51.744;8.252;2022-12-24T03:25:18;5.80;;;1.90;;
45842;SDS011;31563;51.744;8.252;2022-12-24T03:27:49;5.07;;;1.70;;
45842;SDS011;31563;51.744;8.252;2022-12-24T03:30:17;5.10;;;1.88;;
45842;SDS011;31563;51.744;8.252;2022-12-24T03:32:48;6.38;;;2.47;;
45842;SDS011;31563;51.744;8.252;2022-12-24T03:35:17;5.30;;;2.38;;
45842;SDS011;31563;51.744;8.252;2022-12-24T03:37:45;6.40;;;2.15;;
45842;SDS011;31563;51.744;8.252;2022-12-24T03:40:13;6.47;;;2.50;;
45842;SDS011;31563;51.744;8.252;2022-12-24T03:42:41;6.88;;;2.40;;
45842;SDS011;31563;51.744;8.252;2022-12-24T03:45:10;5.75;;;1.90;;
45842;SDS011;31563;51.744;8.252;2022-12-24T03:47:38;4.63;;;2.03;;
45842;SDS011;31563;51.744;8.252;2022-12-24T03:50:08;5.05;;;2.08;;
45842;SDS011;31563;51.744;8.252;2022-12-24T03:55:04;5.05;;;1.70;;
45842;SDS011;31563;51.744;8.252;2022-12-24T03:57:32;6.35;;;1.95;;
45842;SDS011;31563;51.744;8.252;2022-12-24T04:00:00;5.13;;;2.08;;
45842;SDS011;31563;51.744;8.252;2022-12-24T04:02:30;9.23;;;2.53;;
45842;SDS011;31563;51.744;8.252;2022-12-24T04:04:58;5.57;;;2.30;;
45842;SDS011;31563;51.744;8.252;2022-12-24T04:07:28;5.45;;;2.08;;
45842;SDS011;31563;51.744;8.252;2022-12-24T04:09:56;4.18;;;2.05;;
45842;SDS011;31563;51.744;8.252;2022-12-24T04:12:24;4.38;;;2.03;;
45842;SDS011;31563;51.744;8.252;2022-12-24T04:14:52;6.43;;;2.30;;
45842;SDS011;31563;51.744;8.252;2022-12-24T04:17:20;6.13;;;1.80;;
45842;SDS011;31563;51.744;8.252;2022-12-24T04:19:48;4.22;;;1.40;;
45842;SDS011;31563;51.744;8.252;2022-12-24T04:22:16;6.00;;;1.80;;
45842;SDS011;31563;51.744;8.252;2022-12-24T04:24:46;5.47;;;2.00;;
45842;SDS011;31563;51.744;8.252;2022-12-24T04:27:14;6.00;;;2.55;;
45842;SDS011;31563;51.744;8.252;2022-12-24T04:29:43;3.83;;;1.75;;
45842;SDS011;31563;51.744;8.252;2022-12-24T04:32:11;4.47;;;2.50;;
45842;SDS011;31563;51.744;8.252;2022-12-24T04:34:39;5.20;;;1.90;;
45842;SDS011;31563;51.744;8.252;2022-12-24T04:37:07;5.70;;;1.75;;
45842;SDS011;31563;51.744;8.252;2022-12-24T04:39:36;5.13;;;2.15;;
45842;SDS011;31563;51.744;8.252;2022-12-24T04:42:05;5.70;;;2.25;;
45842;SDS011;31563;51.744;8.252;2022-12-24T04:44:33;4.85;;;1.58;;
45842;SDS011;31563;51.744;8.252;2022-12-24T04:47:01;6.60;;;2.03;;
45842;SDS011;31563;51.744;8.252;2022-12-24T04:49:29;3.60;;;1.55;;
45842;SDS011;31563;51.744;8.252;2022-12-24T04:51:58;4.78;;;1.50;;
45842;SDS011;31563;51.744;8.252;2022-12-24T04:54:26;4.63;;;1.75;;
45842;SDS011;31563;51.744;8.252;2022-12-24T04:56:54;6.05;;;1.77;;
45842;SDS011;31563;51.744;8.252;2022-12-24T04:59:25;6.15;;;2.15;;
45842;SDS011;31563;51.744;8.252;2022-12-24T05:01:53;4.15;;;1.90;;
45842;SDS011;31563;51.744;8.252;2022-12-24T05:04:22;5.53;;;1.90;;
45842;SDS011;31563;51.744;8.252;2022-12-24T05:06:50;5.13;;;1.88;;
45842;SDS011;31563;51.744;8.252;2022-12-24T05:09:18;6.63;;;2.40;;
45842;SDS011;31563;51.744;8.252;2022-12-24T05:11:46;5.65;;;1.90;;
45842;SDS011;31563;51.744;8.252;2022-12-24T05:14:14;5.97;;;1.73;;
45842;SDS011;31563;51.744;8.252;2022-12-24T05:16:44;5.95;;;2.20;;
45842;SDS011;31563;51.744;8.252;2022-12-24T05:19:12;4.88;;;1.70;;
45842;SDS011;31563;51.744;8.252;2022-12-24T05:21:40;4.20;;;1.70;;
45842;SDS011;31563;51.744;8.252;2022-12-24T05:24:09;5.95;;;1.60;;
45842;SDS011;31563;51.744;8.252;2022-12-24T05:26:55;4.28;;;1.55;;
45842;SDS011;31563;51.744;8.252;2022-12-24T05:29:24;6.05;;;1.48;;
45842;SDS011;31563;51.744;8.252;2022-12-24T05:31:54;5.30;;;1.75;;
45842;SDS011;31563;51.744;8.252;2022-12-24T05:34:22;8.25;;;2.05;;
45842;SDS011;31563;51.744;8.252;2022-12-24T05:36:51;5.13;;;1.52;;
45842;SDS011;31563;51.744;8.252;2022-12-24T05:39:19;3.70;;;1.63;;
45842;SDS011;31563;51.744;8.252;2022-12-24T05:41:47;3.33;;;1.40;;
45842;SDS011;31563;51.744;8.252;2022-12-24T05:44:15;4.65;;;1.60;;
45842;SDS011;31563;51.744;8.252;2022-12-24T05:46:43;3.80;;;1.70;;
45842;SDS011;31563;51.744;8.252;2022-12-24T05:49:13;4.85;;;1.70;;
45842;SDS011;31563;51.744;8.252;2022-12-24T05:51:41;4.55;;;1.67;;
45842;SDS011;31563;51.744;8.252;2022-12-24T05:54:09;5.30;;;1.60;;
45842;SDS011;31563;51.744;8.252;2022-12-24T05:56:38;5.18;;;1.95;;
45842;SDS011;31563;51.744;8.252;2022-12-24T05:59:06;5.30;;;1.70;;
45842;SDS011;31563;51.744;8.252;2022-12-24T06:01:34;5.80;;;2.20;;
45842;SDS011;31563;51.744;8.252;2022-12-24T06:04:06;3.95;;;1.42;;
45842;SDS011;31563;51.744;8.252;2022-12-24T06:06:35;5.32;;;2.00;;
45842;SDS011;31563;51.744;8.252;2022-12-24T06:09:03;5.65;;;1.90;;
45842;SDS011;31563;51.744;8.252;2022-12-24T06:11:31;3.75;;;1.40;;
45842;SDS011;31563;51.744;8.252;2022-12-24T06:14:00;4.53;;;1.75;;
45842;SDS011;31563;51.744;8.252;2022-12-24T06:16:28;4.80;;;1.67;;
45842;SDS011;31563;51.744;8.252;2022-12-24T06:19:12;3.00;;;1.50;;
45842;SDS011;31563;51.744;8.252;2022-12-24T06:21:42;4.93;;;1.52;;
45842;SDS011;31563;51.744;8.252;2022-12-24T06:24:10;4.93;;;1.92;;
45842;SDS011;31563;51.744;8.252;2022-12-24T06:26:38;8.13;;;3.00;;
45842;SDS011;31563;51.744;8.252;2022-12-24T06:29:07;8.32;;;2.97;;
45842;SDS011;31563;51.744;8.252;2022-12-24T06:31:43;8.40;;;2.35;;
45842;SDS011;31563;51.744;8.252;2022-12-24T06:34:26;8.23;;;2.92;;
45842;SDS011;31563;51.744;8.252;2022-12-24T06:37:07;7.90;;;2.58;;
45842;SDS011;31563;51.744;8.252;2022-12-24T06:40:07;6.28;;;2.47;;
45842;SDS011;31563;51.744;8.252;2022-12-24T06:42:36;7.13;;;2.00;;
45842;SDS011;31563;51.744;8.252;2022-12-24T06:45:05;4.97;;;1.80;;
45842;SDS011;31563;51.744;8.252;2022-12-24T06:47:34;6.20;;;2.60;;
45842;SDS011;31563;51.744;8.252;2022-12-24T06:50:02;5.60;;;1.83;;
45842;SDS011;31563;51.744;8.252;2022-12-24T06:52:33;5.25;;;2.30;;
45842;SDS011;31563;51.744;8.252;2022-12-24T06:55:02;8.25;;;2.20;;
45842;SDS011;31563;51.744;8.252;2022-12-24T06:57:30;8.02;;;2.70;;
45842;SDS011;31563;51.744;8.252;2022-12-24T06:59:58;6.90;;;2.40;;
45842;SDS011;31563;51.744;8.252;2022-12-24T07:02:27;8.27;;;2.33;;
45842;SDS011;31563;51.744;8.252;2022-12-24T07:04:55;6.53;;;2.10;;
45842;SDS011;31563;51.744;8.252;2022-12-24T07:07:23;8.02;;;2.45;;
45842;SDS011;31563;51.744;8.252;2022-12-24T07:09:53;12.05;;;3.70;;
45842;SDS011;31563;51.744;8.252;2022-12-24T07:12:22;14.07;;;3.92;;
45842;SDS011;31563;51.744;8.252;2022-12-24T07:14:50;10.35;;;3.63;;
45842;SDS011;31563;51.744;8.252;2022-12-24T07:17:18;10.65;;;4.03;;
45842;SDS011;31563;51.744;8.252;2022-12-24T07:19:47;9.75;;;3.80;;
45842;SDS011;31563;51.744;8.252;2022-12-24T07:22:15;12.02;;;4.20;;
45842;SDS011;31563;51.744;8.252;2022-12-24T07:24:43;13.90;;;4.07;;
45842;SDS011;31563;51.744;8.252;2022-12-24T07:27:13;12.98;;;3.85;;
45842;SDS011;31563;51.744;8.252;2022-12-24T07:29:41;11.90;;;4.53;;
45842;SDS011;31563;51.744;8.252;2022-12-24T07:32:09;10.98;;;3.65;;
45842;SDS011;31563;51.744;8.252;2022-12-24T07:34:37;10.18;;;3.53;;
45842;SDS011;31563;51.744;8.252;2022-12-24T07:37:06;12.10;;;3.70;;
45842;SDS011;31563;51.744;8.252;2022-12-24T07:39:34;13.95;;;3.92;;
45842;SDS011;31563;51.744;8.252;2022-12-24T07:42:02;11.52;;;3.97;;
45842;SDS011;31563;51.744;8.252;2022-12-24T07:44:34;10.05;;;3.65;;
45842;SDS011;31563;51.744;8.252;2022-12-24T07:47:03;9.27;;;2.97;;
45842;SDS011;31563;51.744;8.252;2022-12-24T07:49:31;9.10;;;3.13;;
45842;SDS011;31563;51.744;8.252;2022-12-24T07:52:00;11.27;;;3.65;;
45842;SDS011;31563;51.744;8.252;2022-12-24T07:54:28;11.32;;;3.05;;
45842;SDS011;31563;51.744;8.252;2022-12-24T07:56:56;12.00;;;4.57;;
45842;SDS011;31563;51.744;8.252;2022-12-24T07:59:24;7.97;;;2.72;;
45842;SDS011;31563;51.744;8.252;2022-12-24T08:01:54;8.63;;;3.17;;
45842;SDS011;31563;51.744;8.252;2022-12-24T08:04:23;9.48;;;3.00;;
45842;SDS011;31563;51.744;8.252;2022-12-24T08:06:51;9.32;;;2.92;;
45842;SDS011;31563;51.744;8.252;2022-12-24T08:09:19;9.45;;;3.05;;
45842;SDS011;31563;51.744;8.252;2022-12-24T08:11:47;11.35;;;3.75;;
45842;SDS011;31563;51.744;8.252;2022-12-24T08:16:45;10.02;;;3.15;;
45842;SDS011;31563;51.744;8.252;2022-12-24T08:19:16;10.10;;;3.25;;
45842;SDS011;31563;51.744;8.252;2022-12-24T08:21:44;9.07;;;2.70;;
45842;SDS011;31563;51.744;8.252;2022-12-24T08:24:12;7.15;;;2.80;;
45842;SDS011;31563;51.744;8.252;2022-12-24T08:26:41;7.63;;;2.15;;
45842;SDS011;31563;51.744;8.252;2022-12-24T08:29:09;8.05;;;2.97;;
45842;SDS011;31563;51.744;8.252;2022-12-24T08:31:37;7.10;;;2.22;;
45842;SDS011;31563;51.744;8.252;2022-12-24T08:34:06;10.43;;;2.97;;
45842;SDS011;31563;51.744;8.252;2022-12-24T08:36:36;7.20;;;2.90;;
45842;SDS011;31563;51.744;8.252;2022-12-24T08:39:05;8.07;;;2.67;;
45842;SDS011;31563;51.744;8.252;2022-12-24T08:41:34;10.52;;;3.08;;
45842;SDS011;31563;51.744;8.252;2022-12-24T08:44:02;10.80;;;2.75;;
45842;SDS011;31563;51.744;8.252;2022-12-24T08:46:30;8.68;;;2.60;;
45842;SDS011;31563;51.744;8.252;2022-12-24T08:48:59;6.82;;;2.45;;
45842;SDS011;31563;51.744;8.252;2022-12-24T08:51:27;7.47;;;3.13;;
45842;SDS011;31563;51.744;8.252;2022-12-24T08:53:57;7.72;;;2.67;;
45842;SDS011;31563;51.744;8.252;2022-12-24T08:56:25;7.07;;;2.25;;
45842;SDS011;31563;51.744;8.252;2022-12-24T08:58:53;7.20;;;2.17;;
45842;SDS011;31563;51.744;8.252;2022-12-24T09:01:22;9.98;;;3.35;;
45842;SDS011;31563;51.744;8.252;2022-12-24T09:03:51;9.27;;;2.53;;
45842;SDS011;31563;51.744;8.252;2022-12-24T09:06:19;5.93;;;2.10;;
45842;SDS011;31563;51.744;8.252;2022-12-24T09:08:47;7.00;;;2.42;;
45842;SDS011;31563;51.744;8.252;2022-12-24T09:11:17;5.88;;;2.22;;
45842;SDS011;31563;51.744;8.252;2022-12-24T09:13:45;8.60;;;2.55;;
45842;SDS011;31563;51.744;8.252;2022-12-24T09:16:13;8.88;;;2.50;;
45842;SDS011;31563;51.744;8.252;2022-12-24T09:18:42;8.88;;;2.67;;
45842;SDS011;31563;51.744;8.252;2022-12-24T09:21:11;6.90;;;2.30;;
45842;SDS011;31563;51.744;8.252;2022-12-24T09:23:41;5.35;;;2.20;;
45842;SDS011;31563;51.744;8.252;2022-12-24T09:26:12;7.43;;;2.13;;
45842;SDS011;31563;51.744;8.252;2022-12-24T09:28:44;7.95;;;2.38;;
45842;SDS011;31563;51.744;8.252;2022-12-24T09:31:12;7.38;;;2.20;;
45842;SDS011;31563;51.744;8.252;2022-12-24T09:33:41;8.55;;;2.40;;
45842;SDS011;31563;51.744;8.252;2022-12-24T09:36:10;6.95;;;2.63;;
45842;SDS011;31563;51.744;8.252;2022-12-24T09:38:39;8.60;;;2.43;;
45842;SDS011;31563;51.744;8.252;2022-12-24T09:41:11;7.22;;;2.15;;
45842;SDS011;31563;51.744;8.252;2022-12-24T09:43:44;7.25;;;2.30;;
45842;SDS011;31563;51.744;8.252;2022-12-24T09:46:16;7.03;;;1.92;;
45842;SDS011;31563;51.744;8.252;2022-12-24T09:48:50;7.78;;;2.60;;
45842;SDS011;31563;51.744;8.252;2022-12-24T09:51:23;6.88;;;2.50;;
45842;SDS011;31563;51.744;8.252;2022-12-24T09:53:56;6.05;;;2.70;;
45842;SDS011;31563;51.744;8.252;2022-12-24T09:56:29;7.35;;;2.53;;
45842;SDS011;31563;51.744;8.252;2022-12-24T09:59:02;6.40;;;2.15;;
45842;SDS011;31563;51.744;8.252;2022-12-24T10:01:33;7.65;;;2.67;;
45842;SDS011;31563;51.744;8.252;2022-12-24T10:04:09;6.53;;;2.45;;
45842;SDS011;31563;51.744;8.252;2022-12-24T10:06:45;8.10;;;1.98;;
45842;SDS011;31563;51.744;8.252;2022-12-24T10:09:19;8.00;;;2.38;;
45842;SDS011;31563;51.744;8.252;2022-12-24T10:11:59;7.40;;;2.30;;
45842;SDS011;31563;51.744;8.252;2022-12-24T10:14:43;6.88;;;2.47;;
45842;SDS011;31563;51.744;8.252;2022-12-24T10:17:28;8.57;;;2.65;;
45842;SDS011;31563;51.744;8.252;2022-12-24T10:20:10;11.63;;;3.20;;
45842;SDS011;31563;51.744;8.252;2022-12-24T10:22:52;6.82;;;3.20;;
45842;SDS011;31563;51.744;8.252;2022-12-24T10:25:27;7.47;;;2.65;;
45842;SDS011;31563;51.744;8.252;2022-12-24T10:28:01;7.13;;;3.03;;
45842;SDS011;31563;51.744;8.252;2022-12-24T10:30:36;7.95;;;2.75;;
45842;SDS011;31563;51.744;8.252;2022-12-24T10:33:06;7.28;;;2.25;;
45842;SDS011;31563;51.744;8.252;2022-12-24T10:35:44;10.15;;;2.95;;
45842;SDS011;31563;51.744;8.252;2022-12-24T10:38:15;6.57;;;2.03;;
45842;SDS011;31563;51.744;8.252;2022-12-24T10:40:43;7.82;;;2.65;;
45842;SDS011;31563;51.744;8.252;2022-12-24T10:43:15;8.63;;;2.90;;
45842;SDS011;31563;51.744;8.252;2022-12-24T10:45:47;6.05;;;2.38;;
45842;SDS011;31563;51.744;8.252;2022-12-24T10:48:20;7.47;;;2.95;;
45842;SDS011;31563;51.744;8.252;2022-12-24T10:50:53;8.52;;;2.40;;
45842;SDS011;31563;51.744;8.252;2022-12-24T10:53:28;7.90;;;2.80;;
45842;SDS011;31563;51.744;8.252;2022-12-24T10:56:04;8.27;;;2.60;;
45842;SDS011;31563;51.744;8.252;2022-12-24T10:58:34;8.95;;;2.90;;
45842;SDS011;31563;51.744;8.252;2022-12-24T11:01:05;9.38;;;2.40;;
45842;SDS011;31563;51.744;8.252;2022-12-24T11:03:34;7.90;;;3.10;;
45842;SDS011;31563;51.744;8.252;2022-12-24T11:06:05;7.43;;;2.45;;
45842;SDS011;31563;51.744;8.252;2022-12-24T11:08:35;8.35;;;2.70;;
45842;SDS011;31563;51.744;8.252;2022-12-24T11:11:06;7.05;;;2.78;;
45842;SDS011;31563;51.744;8.252;2022-12-24T11:13:38;6.47;;;3.17;;
45842;SDS011;31563;51.744;8.252;2022-12-24T11:16:14;8.90;;;2.75;;
45842;SDS011;31563;51.744;8.252;2022-12-24T11:18:46;9.77;;;3.17;;
45842;SDS011;31563;51.744;8.252;2022-12-24T11:21:18;9.43;;;3.03;;
45842;SDS011;31563;51.744;8.252;2022-12-24T11:23:52;14.82;;;3.65;;
45842;SDS011;31563;51.744;8.252;2022-12-24T11:26:23;12.50;;;2.88;;
45842;SDS011;31563;51.744;8.252;2022-12-24T11:29:11;11.02;;;3.10;;
45842;SDS011;31563;51.744;8.252;2022-12-24T11:31:43;8.25;;;3.10;;
45842;SDS011;31563;51.744;8.252;2022-12-24T11:34:21;11.07;;;2.50;;
45842;SDS011;31563;51.744;8.252;2022-12-24T11:36:52;11.63;;;3.63;;
45842;SDS011;31563;51.744;8.252;2022-12-24T11:39:23;16.25;;;5.07;;
45842;SDS011;31563;51.744;8.252;2022-12-24T11:44:22;14.52;;;4.53;;
45842;SDS011;31563;51.744;8.252;2022-12-24T11:46:54;19.40;;;5.40;;
45842;SDS011;31563;51.744;8.252;2022-12-24T11:49:24;14.70;;;4.82;;
45842;SDS011;31563;51.744;8.252;2022-12-24T11:51:59;15.35;;;4.57;;
45842;SDS011;31563;51.744;8.252;2022-12-24T11:54:57;15.07;;;4.60;;
45842;SDS011;31563;51.744;8.252;2022-12-24T11:57:42;14.85;;;4.45;;
45842;SDS011;31563;51.744;8.252;2022-12-24T12:00:17;12.82;;;4.15;;
45842;SDS011;31563;51.744;8.252;2022-12-24T12:02:48;10.63;;;3.58;;
45842;SDS011;31563;51.744;8.252;2022-12-24T12:05:18;13.32;;;4.00;;
45842;SDS011;31563;51.744;8.252;2022-12-24T12:07:50;22.00;;;5.38;;
45842;SDS011;31563;51.744;8.252;2022-12-24T12:10:22;12.45;;;4.40;;
45842;SDS011;31563;51.744;8.252;2022-12-24T12:12:55;17.98;;;5.13;;
45842;SDS011;31563;51.744;8.252;2022-12-24T12:15:27;15.45;;;4.18;;
45842;SDS011;31563;51.744;8.252;2022-12-24T12:18:02;13.90;;;4.55;;
45842;SDS011;31563;51.744;8.252;2022-12-24T12:20:37;14.82;;;4.35;;
45842;SDS011;31563;51.744;8.252;2022-12-24T12:23:10;13.57;;;4.22;;
45842;SDS011;31563;51.744;8.252;2022-12-24T12:25:44;10.60;;;3.90;;
45842;SDS011;31563;51.744;8.252;2022-12-24T12:28:17;12.98;;;4.13;;
45842;SDS011;31563;51.744;8.252;2022-12-24T12:30:53;11.57;;;3.88;;
45842;SDS011;31563;51.744;8.252;2022-12-24T12:33:30;15.27;;;4.60;;
45842;SDS011;31563;51.744;8.252;2022-12-24T12:36:04;15.65;;;4.88;;
45842;SDS011;31563;51.744;8.252;2022-12-24T12:38:34;15.93;;;5.15;;
45842;SDS011;31563;51.744;8.252;2022-12-24T12:41:08;17.27;;;5.68;;
45842;SDS011;31563;51.744;8.252;2022-12-24T12:46:50;14.55;;;5.45;;
45842;SDS011;31563;51.744;8.252;2022-12-24T12:49:26;20.33;;;6.80;;
45842;SDS011;31563;51.744;8.252;2022-12-24T12:52:04;16.55;;;5.90;;
45842;SDS011;31563;51.744;8.252;2022-12-24T12:54:48;17.90;;;6.22;;
45842;SDS011;31563;51.744;8.252;2022-12-24T12:57:30;15.25;;;5.32;;
45842;SDS011;31563;51.744;8.252;2022-12-24T13:00:03;15.20;;;5.88;;
45842;SDS011;31563;51.744;8.252;2022-12-24T13:02:40;20.27;;;5.90;;
45842;SDS011;31563;51.744;8.252;2022-12-24T13:05:28;13.85;;;4.93;;
45842;SDS011;31563;51.744;8.252;2022-12-24T13:11:48;15.30;;;4.70;;
45842;SDS011;31563;51.744;8.252;2022-12-24T13:14:37;10.95;;;3.80;;
45842;SDS011;31563;51.744;8.252;2022-12-24T13:17:28;15.07;;;4.83;;
45842;SDS011;31563;51.744;8.252;2022-12-24T13:20:09;15.80;;;4.57;;
45842;SDS011;31563;51.744;8.252;2022-12-24T13:22:50;10.00;;;4.05;;
45842;SDS011;31563;51.744;8.252;2022-12-24T13:25:25;11.52;;;4.05;;
45842;SDS011;31563;51.744;8.252;2022-12-24T13:34:03;11.68;;;4.28;;
45842;SDS011;31563;51.744;8.252;2022-12-24T13:37:04;10.23;;;3.38;;
45842;SDS011;31563;51.744;8.252;2022-12-24T13:40:10;12.10;;;3.85;;
45842;SDS011;31563;51.744;8.252;2022-12-24T13:42:45;12.65;;;4.03;;
45842;SDS011;31563;51.744;8.252;2022-12-24T13:45:40;14.25;;;5.45;;
45842;SDS011;31563;51.744;8.252;2022-12-24T13:48:17;17.35;;;5.13;;
45842;SDS011;31563;51.744;8.252;2022-12-24T13:50:55;15.63;;;4.80;;
45842;SDS011;31563;51.744;8.252;2022-12-24T13:53:26;12.82;;;4.32;;
45842;SDS011;31563;51.744;8.252;2022-12-24T13:56:01;17.52;;;5.15;;
45842;SDS011;31563;51.744;8.252;2022-12-24T13:58:32;11.98;;;4.25;;
45842;SDS011;31563;51.744;8.252;2022-12-24T14:01:03;14.68;;;3.78;;
45842;SDS011;31563;51.744;8.252;2022-12-24T14:03:35;11.55;;;4.40;;
45842;SDS011;31563;51.744;8.252;2022-12-24T14:06:09;16.23;;;4.13;;
45842;SDS011;31563;51.744;8.252;2022-12-24T14:08:41;16.58;;;5.13;;
45842;SDS011;31563;51.744;8.252;2022-12-24T14:11:14;15.18;;;4.38;;
45842;SDS011;31563;51.744;8.252;2022-12-24T14:13:52;18.38;;;5.05;;
45842;SDS011;31563;51.744;8.252;2022-12-24T14:16:21;17.77;;;4.95;;
45842;SDS011;31563;51.744;8.252;2022-12-24T14:21:25;17.40;;;4.55;;
45842;SDS011;31563;51.744;8.252;2022-12-24T14:23:58;17.60;;;5.40;;
45842;SDS011;31563;51.744;8.252;2022-12-24T14:26:32;15.75;;;4.30;;
45842;SDS011;31563;51.744;8.252;2022-12-24T14:29:03;13.95;;;4.30;;
45842;SDS011;31563;51.744;8.252;2022-12-24T14:31:33;14.98;;;4.72;;
45842;SDS011;31563;51.744;8.252;2022-12-24T14:34:05;13.68;;;4.30;;
45842;SDS011;31563;51.744;8.252;2022-12-24T14:36:34;13.43;;;4.22;;
45842;SDS011;31563;51.744;8.252;2022-12-24T14:39:04;12.15;;;3.88;;
45842;SDS011;31563;51.744;8.252;2022-12-24T14:41:39;13.63;;;4.47;;
45842;SDS011;31563;51.744;8.252;2022-12-24T14:44:17;11.40;;;4.13;;
45842;SDS011;31563;51.744;8.252;2022-12-24T14:47:04;16.52;;;4.40;;
45842;SDS011;31563;51.744;8.252;2022-12-24T14:52:17;11.63;;;3.72;;
45842;SDS011;31563;51.744;8.252;2022-12-24T14:55:29;14.05;;;4.38;;
45842;SDS011;31563;51.744;8.252;2022-12-24T15:00:59;13.63;;;4.13;;
45842;SDS011;31563;51.744;8.252;2022-12-24T15:03:29;10.27;;;3.90;;
45842;SDS011;31563;51.744;8.252;2022-12-24T15:10:59;9.98;;;3.63;;
45842;SDS011;31563;51.744;8.252;2022-12-24T15:13:35;11.52;;;4.10;;
45842;SDS011;31563;51.744;8.252;2022-12-24T15:16:05;8.60;;;3.20;;
45842;SDS011;31563;51.744;8.252;2022-12-24T15:18:37;12.05;;;4.43;;
45842;SDS011;31563;51.744;8.252;2022-12-24T15:21:14;8.43;;;3.17;;
45842;SDS011;31563;51.744;8.252;2022-12-24T15:23:47;11.48;;;4.10;;
45842;SDS011;31563;51.744;8.252;2022-12-24T15:26:21;9.35;;;3.53;;
45842;SDS011;31563;51.744;8.252;2022-12-24T15:28:53;11.60;;;3.63;;
45842;SDS011;31563;51.744;8.252;2022-12-24T15:31:29;8.35;;;3.17;;
45842;SDS011;31563;51.744;8.252;2022-12-24T15:33:58;10.30;;;3.25;;
45842;SDS011;31563;51.744;8.252;2022-12-24T15:36:27;8.93;;;3.05;;
45842;SDS011;31563;51.744;8.252;2022-12-24T15:38:58;8.13;;;2.88;;
45842;SDS011;31563;51.744;8.252;2022-12-24T15:41:31;8.43;;;3.33;;
45842;SDS011;31563;51.744;8.252;2022-12-24T15:44:26;10.65;;;3.97;;
45842;SDS011;31563;51.744;8.252;2022-12-24T15:46:56;13.68;;;4.03;;
45842;SDS011;31563;51.744;8.252;2022-12-24T15:49:26;15.15;;;4.55;;
45842;SDS011;31563;51.744;8.252;2022-12-24T15:52:01;12.27;;;4.15;;